Aeroporto :
LOGIN :

Iscrizione | Disclaimer

   EN    FR    IT 

 










Sommario :    VFR   VFR Marginale   IFR   IFR Intensivo   IFR Molto Intensivo
Visibilità : 
Base nubi : 
>= 8 km
>= 3000ft
5 / 8 km
1000 / 3000 ft
1500m / 5 km
500 / 1000 ft
800 / 1500m
200 / 500 ft
< 800m
< 200 ft
Simboli :   Temporali  Nebbia  Neve Forte  Precipitazioni Forti  Vento > 20 kt
SIGMETs :   Varie  Temporali  Ghiacco  Turbolenza  Onda orograficha  Ceneri Vulcaniche






- Altitudine del aeroporto : 184 ft
- Codice IATA : BRU


EBBR - Bruxelles

ULTIMO METAR :
  • 010750Z 14009KT 9999 SCT035 14/12 Q1000 NOSIG

METARs OBSOLETI :
  • 010720Z 15008KT 9999 -RA NSC 14/12 Q1000 NOSIG
  • 010650Z 16008KT 130V190 9999 -RA NSC 14/12 Q1000 NOSIG
  • 010620Z 15008KT 9999 -RA FEW028 14/12 Q1001 NOSIG
  • 010550Z 15007KT 9999 FEW028 14/12 Q1001 NOSIG
  • 010520Z 15008KT CAVOK 14/13 Q1001 NOSIG

TAF TAF EBBR
Valido dal 01 a 06 ore il 02 a 12 ore UTC


010520Z 0106/0212 16008KT 9999 SCT024
PROB40
TEMPO 0106/0109 4000 RA SHRA BKN013TCU
PROB40
TEMPO 0109/0114 18015G28KT 4000 RA SHRA BKN012CB
BECMG 0112/0114 25010KT
PROB30
TEMPO 0115/0118 4000 SHRA
BECMG 0116/0118 18007KT
BECMG 0205/0207 10010KT



MetMap, La meteo Aeronautica in un colpo d'occhio ! - Copyright ORBIFLY Dicembre 2007 - Disclaimer

ORBIFLY MET'MAP TEAM :

Programmazione e sviluppo : Alexandra Zaïnal
Concezione : Baudouin d'Aumeries
Aiuto per la programmazione : Marc-Olivier Méhu
Supporto tecnico e logistico : Manuel Goepfert
Aiuto per la traduzione : Arnaldo La Scala

Contatto : metmap@orbifly.com




FONTI E CREDITI :

   NOAA